Create Tblcommutelog Verified Points Advance Search
| # | Trip ID | Id Commuter | Trip Date | Trip Num | Current Lat | Current Lng | Delta Distance | Current Time | Activity | Activity Confidence | Current Speed | |
|---|---|---|---|---|---|---|---|---|---|---|---|---|
| 70201 | 250616_785678_16653843_1426 | 785678 | (not set) | (not set) | 39.106824718986 | -77.166945823589 | 0.7556 | 2025-06-16 18:32:44.219 | in_vehicle | 100 | 8.1674072617057 | |
| 70202 | 250616_785678_16653843_1426 | 785678 | (not set) | (not set) | 39.106100466331 | -77.169822166285 | 0.9181 | 2025-06-16 18:32:59.229 | in_vehicle | 100 | 7.2867399214999 | |
| 70203 | 250616_785678_16653843_1426 | 785678 | (not set) | (not set) | 39.104933873836 | -77.17173813114 | 1.0487 | 2025-06-16 18:33:19.489 | in_vehicle | 100 | 6.446306114603 | |
| 70204 | 250616_785678_16653843_1426 | 785678 | (not set) | (not set) | 39.103689400836 | -77.17356925231 | 1.1794 | 2025-06-16 18:33:31.234 | in_vehicle | 100 | 7.8678909581839 | |
| 70205 | 250616_785678_16653843_1426 | 785678 | (not set) | (not set) | 39.10231778293 | -77.175949237832 | 1.3385 | 2025-06-16 18:33:46.246 | in_vehicle | 100 | 7.7829534989763 | |
| 70206 | 250616_785678_16653843_1426 | 785678 | (not set) | (not set) | 39.101573209929 | -77.17806201102 | 1.4631 | 2025-06-16 18:33:58.25 | in_vehicle | 100 | 7.4029701288367 | |
| 70207 | 250616_785678_16653843_1426 | 785678 | (not set) | (not set) | 39.100802774985 | -77.180256814571 | 1.5925 | 2025-06-16 18:34:11.208 | in_vehicle | 100 | 6.8709934106413 | |
| 70208 | 250616_785678_16653843_1426 | 785678 | (not set) | (not set) | 39.099248101565 | -77.181503782146 | 1.719 | 2025-06-16 18:34:31.208 | in_vehicle | 100 | 6.8262894847425 | |
| 70209 | 250616_785678_16653843_1426 | 785678 | (not set) | (not set) | 39.097429269742 | -77.181343019014 | 1.8447 | 2025-06-16 18:34:44.219 | in_vehicle | 100 | 7.1213353956744 | |
| 70210 | 250616_785678_16653843_1426 | 785678 | (not set) | (not set) | 39.095620933908 | -77.180875913758 | 1.972 | 2025-06-16 18:34:59.198 | in_vehicle | 100 | 5.1498922635386 | |
| 70211 | 250616_785678_16653843_1426 | 785678 | (not set) | (not set) | 39.094389528216 | -77.180146303064 | 2.0656 | 2025-06-16 18:35:10.219 | in_vehicle | 100 | 6.5804178922993 | |
| 70212 | 250616_785678_16653843_1426 | 785678 | (not set) | (not set) | 39.090864076096 | -77.179281993808 | 2.3225 | 2025-06-16 18:35:45.227 | in_vehicle | 100 | 3.2097418795319 | |
| 70213 | 250603_785553_16653709_1623 | 785553 | (not set) | (not set) | 39.2998613 | -76.6457638 | 5.1384 | 2025-06-03 20:50:24.669 | in_vehicle | 100 | 7.0051051883376 | |
| 70214 | 250603_774366_16641789_1624 | 774366 | (not set) | (not set) | 38.908054820553 | -77.034643345164 | 3.8792 | 2025-06-03 20:50:46.288 | on_bicycle | 100 | 0 | |
| 70215 | 250603_784608_16652580_1610 | 784608 | (not set) | (not set) | 38.740690659437 | -77.231386243889 | 21.3724 | 2025-06-03 20:50:46.566 | in_vehicle | 100 | 7.5907266176116 | |
| 70216 | 250603_774366_16641789_1624 | 774366 | (not set) | (not set) | 38.907740855146 | -77.034646175752 | 3.9008 | 2025-06-03 20:50:46.592 | on_bicycle | 100 | -0.44703925898772 | |
| 70217 | 250603_780836_16648513_1604 | 780836 | (not set) | (not set) | 38.913260475569 | -77.2281244521 | 11.7676 | 2025-06-03 20:50:46.637 | still | 33 | 3.6567811385196 | |
| 70218 | 250603_781975_16649666_1640 | 781975 | (not set) | (not set) | 38.898070142965 | -77.007310430315 | 0.5523 | 2025-06-03 20:50:47.156 | in_vehicle | 100 | -0.44703925898772 | |
| 70219 | 250603_781975_16649666_1640 | 781975 | (not set) | (not set) | 38.89799468254 | -77.007310855868 | 0.5523 | 2025-06-03 20:50:47.208 | in_vehicle | 100 | -0.44703925898772 | |
| 70220 | 250603_763194_16630042_1633 | 763194 | (not set) | (not set) | 39.299116356725 | -76.575571441242 | 2.2128 | 2025-06-03 20:50:47.222 | in_vehicle | 100 | 4.4122774862088 |